sensor_id;sensor_type;location;lat;lon;timestamp;temperature;humidity
12811;DHT22;6470;47.654;7.896;2023-04-05T09:48:18;9.90;97.60
12811;DHT22;6470;47.654;7.896;2023-04-05T09:53:11;9.80;96.80
12811;DHT22;6470;47.654;7.896;2023-04-05T09:55:41;10.00;96.80
12811;DHT22;6470;47.654;7.896;2023-04-05T09:58:20;10.00;95.70
12811;DHT22;6470;47.654;7.896;2023-04-05T10:00:50;10.60;95.90
12811;DHT22;6470;47.654;7.896;2023-04-05T10:03:19;10.10;95.70
12811;DHT22;6470;47.654;7.896;2023-04-05T10:05:45;10.40;95.40
12811;DHT22;6470;47.654;7.896;2023-04-05T10:08:13;10.00;93.60
12811;DHT22;6470;47.654;7.896;2023-04-05T10:10:46;10.20;94.10
12811;DHT22;6470;47.654;7.896;2023-04-05T10:13:14;9.80;94.30
12811;DHT22;6470;47.654;7.896;2023-04-05T10:15:46;10.20;92.70
12811;DHT22;6470;47.654;7.896;2023-04-05T10:18:20;10.50;92.20
12811;DHT22;6470;47.654;7.896;2023-04-05T10:20:49;10.40;92.10
12811;DHT22;6470;47.654;7.896;2023-04-05T10:23:21;11.60;95.40
12811;DHT22;6470;47.654;7.896;2023-04-05T10:28:35;12.30;93.60
12811;DHT22;6470;47.654;7.896;2023-04-05T10:33:45;10.60;93.80
12811;DHT22;6470;47.654;7.896;2023-04-05T10:39:25;11.50;93.00
12811;DHT22;6470;47.654;7.896;2023-04-05T10:41:59;11.00;92.30
12811;DHT22;6470;47.654;7.896;2023-04-05T10:44:28;9.70;91.60
12811;DHT22;6470;47.654;7.896;2023-04-05T10:46:55;10.50;92.10
12811;DHT22;6470;47.654;7.896;2023-04-05T10:49:31;12.00;93.10
12811;DHT22;6470;47.654;7.896;2023-04-05T10:54:25;12.50;92.70
12811;DHT22;6470;47.654;7.896;2023-04-05T10:56:52;11.20;92.50
12811;DHT22;6470;47.654;7.896;2023-04-05T10:59:18;11.20;93.50
12811;DHT22;6470;47.654;7.896;2023-04-05T11:01:45;12.70;91.20
12811;DHT22;6470;47.654;7.896;2023-04-05T11:04:13;12.40;91.00
12811;DHT22;6470;47.654;7.896;2023-04-05T11:06:40;11.30;90.80
12811;DHT22;6470;47.654;7.896;2023-04-05T11:09:18;12.20;92.30
12811;DHT22;6470;47.654;7.896;2023-04-05T11:11:49;12.40;91.40
12811;DHT22;6470;47.654;7.896;2023-04-05T11:14:18;10.40;90.70
12811;DHT22;6470;47.654;7.896;2023-04-05T11:16:46;10.40;91.30
12811;DHT22;6470;47.654;7.896;2023-04-05T11:19:15;12.30;93.20
12811;DHT22;6470;47.654;7.896;2023-04-05T11:24:11;12.10;91.60
12811;DHT22;6470;47.654;7.896;2023-04-05T11:29:06;12.20;90.60
12811;DHT22;6470;47.654;7.896;2023-04-05T11:31:31;15.00;91.30
12811;DHT22;6470;47.654;7.896;2023-04-05T11:34:04;12.40;91.60
12811;DHT22;6470;47.654;7.896;2023-04-05T11:36:38;14.90;93.70
12811;DHT22;6470;47.654;7.896;2023-04-05T11:41:55;12.20;92.20
12811;DHT22;6470;47.654;7.896;2023-04-05T11:44:21;12.00;93.10
12811;DHT22;6470;47.654;7.896;2023-04-05T11:46:51;11.90;92.00
12811;DHT22;6470;47.654;7.896;2023-04-05T11:49:20;11.90;91.90
12811;DHT22;6470;47.654;7.896;2023-04-05T11:51:46;11.60;92.10
12811;DHT22;6470;47.654;7.896;2023-04-05T11:54:30;15.30;92.20
12811;DHT22;6470;47.654;7.896;2023-04-05T11:56:56;15.10;93.30
12811;DHT22;6470;47.654;7.896;2023-04-05T11:59:31;12.30;90.60
12811;DHT22;6470;47.654;7.896;2023-04-05T12:02:01;15.20;92.60
12811;DHT22;6470;47.654;7.896;2023-04-05T12:04:28;12.30;92.20
12811;DHT22;6470;47.654;7.896;2023-04-05T12:07:17;12.40;92.30
12811;DHT22;6470;47.654;7.896;2023-04-05T12:10:06;11.20;92.20
12811;DHT22;6470;47.654;7.896;2023-04-05T12:12:42;11.90;94.00
12811;DHT22;6470;47.654;7.896;2023-04-05T12:15:10;10.20;93.60
12811;DHT22;6470;47.654;7.896;2023-04-05T12:20:09;12.20;94.30
12811;DHT22;6470;47.654;7.896;2023-04-05T12:22:36;11.20;93.10
12811;DHT22;6470;47.654;7.896;2023-04-05T12:25:03;12.20;93.70
12811;DHT22;6470;47.654;7.896;2023-04-05T12:27:29;12.40;92.20
12811;DHT22;6470;47.654;7.896;2023-04-05T12:30:15;12.00;91.80
12811;DHT22;6470;47.654;7.896;2023-04-05T12:32:47;11.60;91.70
12811;DHT22;6470;47.654;7.896;2023-04-05T12:35:22;12.50;91.10
12811;DHT22;6470;47.654;7.896;2023-04-05T12:37:57;12.20;93.00
12811;DHT22;6470;47.654;7.896;2023-04-05T12:40:24;10.20;92.40
12811;DHT22;6470;47.654;7.896;2023-04-05T12:42:50;14.90;94.20
12811;DHT22;6470;47.654;7.896;2023-04-05T12:45:16;11.80;93.30
12811;DHT22;6470;47.654;7.896;2023-04-05T12:47:58;12.00;92.40
12811;DHT22;6470;47.654;7.896;2023-04-05T12:50:29;11.70;91.80
12811;DHT22;6470;47.654;7.896;2023-04-05T12:52:56;12.40;92.00
12811;DHT22;6470;47.654;7.896;2023-04-05T12:55:24;11.90;92.30
12811;DHT22;6470;47.654;7.896;2023-04-05T12:57:52;11.30;92.20
12811;DHT22;6470;47.654;7.896;2023-04-05T13:00:19;12.00;91.40
12811;DHT22;6470;47.654;7.896;2023-04-05T13:02:57;11.70;91.90
12811;DHT22;6470;47.654;7.896;2023-04-05T13:05:24;11.80;92.60
12811;DHT22;6470;47.654;7.896;2023-04-05T13:07:50;14.80;92.80
12811;DHT22;6470;47.654;7.896;2023-04-05T13:10:21;14.60;91.60
12811;DHT22;6470;47.654;7.896;2023-04-05T13:12:47;15.40;93.50
12811;DHT22;6470;47.654;7.896;2023-04-05T13:15:14;14.70;93.30
12811;DHT22;6470;47.654;7.896;2023-04-05T13:17:41;14.90;92.30
12811;DHT22;6470;47.654;7.896;2023-04-05T13:20:08;11.90;91.20
12811;DHT22;6470;47.654;7.896;2023-04-05T13:22:34;11.90;91.20
12811;DHT22;6470;47.654;7.896;2023-04-05T13:25:01;14.70;92.30
12811;DHT22;6470;47.654;7.896;2023-04-05T13:27:27;15.00;92.50
12811;DHT22;6470;47.654;7.896;2023-04-05T13:29:52;15.30;91.80
12811;DHT22;6470;47.654;7.896;2023-04-05T13:32:18;14.90;90.10
12811;DHT22;6470;47.654;7.896;2023-04-05T13:34:44;12.70;90.60
12811;DHT22;6470;47.654;7.896;2023-04-05T13:37:09;12.10;91.40
12811;DHT22;6470;47.654;7.896;2023-04-05T13:39:35;11.60;91.30
12811;DHT22;6470;47.654;7.896;2023-04-05T13:42:01;12.20;92.80
12811;DHT22;6470;47.654;7.896;2023-04-05T13:46:53;15.00;92.00
12811;DHT22;6470;47.654;7.896;2023-04-05T13:49:18;15.20;92.10
12811;DHT22;6470;47.654;7.896;2023-04-05T13:51:44;15.30;91.70
12811;DHT22;6470;47.654;7.896;2023-04-05T13:54:10;12.70;91.00
12811;DHT22;6470;47.654;7.896;2023-04-05T13:56:36;15.00;92.00
12811;DHT22;6470;47.654;7.896;2023-04-05T13:59:03;12.90;91.60
12811;DHT22;6470;47.654;7.896;2023-04-05T14:06:20;14.90;92.40
12811;DHT22;6470;47.654;7.896;2023-04-05T14:08:46;13.00;92.10
12811;DHT22;6470;47.654;7.896;2023-04-05T14:11:12;13.30;92.40
12811;DHT22;6470;47.654;7.896;2023-04-05T14:13:38;13.20;91.10
12811;DHT22;6470;47.654;7.896;2023-04-05T14:16:04;15.10;91.50
12811;DHT22;6470;47.654;7.896;2023-04-05T14:18:30;10.10;88.60
12811;DHT22;6470;47.654;7.896;2023-04-05T14:20:56;15.50;92.90
12811;DHT22;6470;47.654;7.896;2023-04-05T14:23:22;12.60;92.20
12811;DHT22;6470;47.654;7.896;2023-04-05T14:28:14;12.50;92.40
12811;DHT22;6470;47.654;7.896;2023-04-05T14:30:39;14.50;92.70
12811;DHT22;6470;47.654;7.896;2023-04-05T14:33:05;15.30;92.90
12811;DHT22;6470;47.654;7.896;2023-04-05T14:35:31;15.20;93.40
12811;DHT22;6470;47.654;7.896;2023-04-05T14:37:57;12.10;92.40
12811;DHT22;6470;47.654;7.896;2023-04-05T14:40:22;15.30;92.70
12811;DHT22;6470;47.654;7.896;2023-04-05T14:42:48;15.50;93.30
12811;DHT22;6470;47.654;7.896;2023-04-05T14:45:14;15.60;92.00
12811;DHT22;6470;47.654;7.896;2023-04-05T14:47:40;15.10;93.40
12811;DHT22;6470;47.654;7.896;2023-04-05T14:50:06;15.40;93.10
12811;DHT22;6470;47.654;7.896;2023-04-05T14:52:32;15.20;92.50
12811;DHT22;6470;47.654;7.896;2023-04-05T14:57:24;14.90;92.30
12811;DHT22;6470;47.654;7.896;2023-04-05T14:59:50;14.30;92.50
12811;DHT22;6470;47.654;7.896;2023-04-05T15:02:15;15.50;92.20
12811;DHT22;6470;47.654;7.896;2023-04-05T15:04:41;12.20;91.20
12811;DHT22;6470;47.654;7.896;2023-04-05T15:07:07;14.50;92.60
12811;DHT22;6470;47.654;7.896;2023-04-05T15:09:32;15.10;93.80
12811;DHT22;6470;47.654;7.896;2023-04-05T15:11:58;12.50;93.10
12811;DHT22;6470;47.654;7.896;2023-04-05T15:14:25;12.80;92.80
12811;DHT22;6470;47.654;7.896;2023-04-05T15:16:51;14.90;93.70
12811;DHT22;6470;47.654;7.896;2023-04-05T15:19:17;15.50;93.50
12811;DHT22;6470;47.654;7.896;2023-04-05T15:21:42;15.60;94.10
12811;DHT22;6470;47.654;7.896;2023-04-05T15:24:09;10.50;92.30
12811;DHT22;6470;47.654;7.896;2023-04-05T15:26:35;15.50;93.50
12811;DHT22;6470;47.654;7.896;2023-04-05T15:29:01;15.50;93.70
12811;DHT22;6470;47.654;7.896;2023-04-05T15:31:27;10.60;92.10
12811;DHT22;6470;47.654;7.896;2023-04-05T15:33:52;15.80;93.50
12811;DHT22;6470;47.654;7.896;2023-04-05T15:36:18;15.40;93.40
12811;DHT22;6470;47.654;7.896;2023-04-05T15:38:44;10.20;92.00
12811;DHT22;6470;47.654;7.896;2023-04-05T15:41:12;12.50;92.80
12811;DHT22;6470;47.654;7.896;2023-04-05T15:43:37;12.40;93.30
12811;DHT22;6470;47.654;7.896;2023-04-05T15:46:04;15.30;93.90
12811;DHT22;6470;47.654;7.896;2023-04-05T15:48:29;14.90;93.20
12811;DHT22;6470;47.654;7.896;2023-04-05T15:50:55;15.10;93.40
12811;DHT22;6470;47.654;7.896;2023-04-05T15:53:21;12.50;92.70
12811;DHT22;6470;47.654;7.896;2023-04-05T15:55:47;10.30;92.20
12811;DHT22;6470;47.654;7.896;2023-04-05T15:58:12;15.20;93.40
12811;DHT22;6470;47.654;7.896;2023-04-05T16:00:38;12.40;92.50
12811;DHT22;6470;47.654;7.896;2023-04-05T16:03:04;14.60;92.70
12811;DHT22;6470;47.654;7.896;2023-04-05T16:05:30;12.30;92.00
12811;DHT22;6470;47.654;7.896;2023-04-05T16:07:56;14.90;93.00
12811;DHT22;6470;47.654;7.896;2023-04-05T16:10:22;15.30;93.70
12811;DHT22;6470;47.654;7.896;2023-04-05T16:12:48;15.00;93.60
12811;DHT22;6470;47.654;7.896;2023-04-05T16:17:40;15.30;93.40
12811;DHT22;6470;47.654;7.896;2023-04-05T16:20:06;12.30;92.50
12811;DHT22;6470;47.654;7.896;2023-04-05T16:22:31;15.40;92.70
12811;DHT22;6470;47.654;7.896;2023-04-05T16:24:57;12.50;91.40
12811;DHT22;6470;47.654;7.896;2023-04-05T16:27:23;15.10;93.00
12811;DHT22;6470;47.654;7.896;2023-04-05T16:29:49;12.40;91.40
12811;DHT22;6470;47.654;7.896;2023-04-05T16:32:14;15.10;92.10
12811;DHT22;6470;47.654;7.896;2023-04-05T16:34:40;10.30;89.60
12811;DHT22;6470;47.654;7.896;2023-04-05T16:39:33;12.70;90.70
12811;DHT22;6470;47.654;7.896;2023-04-05T16:41:58;12.40;90.20
12811;DHT22;6470;47.654;7.896;2023-04-05T16:44:24;12.90;91.10
12811;DHT22;6470;47.654;7.896;2023-04-05T16:46:50;12.90;91.10
12811;DHT22;6470;47.654;7.896;2023-04-05T16:49:16;11.60;90.70
12811;DHT22;6470;47.654;7.896;2023-04-05T16:51:42;11.60;91.20
12811;DHT22;6470;47.654;7.896;2023-04-05T16:54:08;12.70;92.30
12811;DHT22;6470;47.654;7.896;2023-04-05T16:56:34;11.50;92.20
12811;DHT22;6470;47.654;7.896;2023-04-05T16:58:59;11.50;92.10
12811;DHT22;6470;47.654;7.896;2023-04-05T17:01:26;11.20;92.30
12811;DHT22;6470;47.654;7.896;2023-04-05T17:11:10;12.40;93.00
12811;DHT22;6470;47.654;7.896;2023-04-05T17:13:36;12.20;93.50
12811;DHT22;6470;47.654;7.896;2023-04-05T17:16:01;11.80;93.50
12811;DHT22;6470;47.654;7.896;2023-04-05T17:18:27;11.60;93.60
12811;DHT22;6470;47.654;7.896;2023-04-05T17:20:53;11.90;93.40
12811;DHT22;6470;47.654;7.896;2023-04-05T17:25:45;12.50;93.70
12811;DHT22;6470;47.654;7.896;2023-04-05T17:28:10;10.50;93.20
12811;DHT22;6470;47.654;7.896;2023-04-05T17:33:03;9.80;93.80
12811;DHT22;6470;47.654;7.896;2023-04-05T17:35:29;9.90;94.00
12811;DHT22;6470;47.654;7.896;2023-04-05T17:37:55;9.50;93.60
12811;DHT22;6470;47.654;7.896;2023-04-05T17:40:21;9.30;93.80
12811;DHT22;6470;47.654;7.896;2023-04-05T17:42:47;9.90;93.80
12811;DHT22;6470;47.654;7.896;2023-04-05T17:45:12;9.20;93.70
12811;DHT22;6470;47.654;7.896;2023-04-05T17:47:38;8.80;95.00
12811;DHT22;6470;47.654;7.896;2023-04-05T17:50:04;9.00;94.90
12811;DHT22;6470;47.654;7.896;2023-04-05T17:52:30;8.60;95.20
12811;DHT22;6470;47.654;7.896;2023-04-05T17:54:56;8.80;94.60
12811;DHT22;6470;47.654;7.896;2023-04-05T17:57:21;8.50;95.60
12811;DHT22;6470;47.654;7.896;2023-04-05T17:59:47;8.60;95.80
12811;DHT22;6470;47.654;7.896;2023-04-05T18:02:13;8.80;99.90
12811;DHT22;6470;47.654;7.896;2023-04-05T18:04:39;8.30;99.90
12811;DHT22;6470;47.654;7.896;2023-04-05T18:07:06;5.50;99.90
12811;DHT22;6470;47.654;7.896;2023-04-05T18:09:33;8.00;99.90
12811;DHT22;6470;47.654;7.896;2023-04-05T18:11:59;7.70;99.90
12811;DHT22;6470;47.654;7.896;2023-04-05T18:14:25;8.00;99.90
12811;DHT22;6470;47.654;7.896;2023-04-05T18:16:51;7.70;99.90
12811;DHT22;6470;47.654;7.896;2023-04-05T18:19:17;4.70;99.90
12811;DHT22;6470;47.654;7.896;2023-04-05T18:21:42;4.40;99.90
12811;DHT22;6470;47.654;7.896;2023-04-05T18:24:09;6.90;99.90
12811;DHT22;6470;47.654;7.896;2023-04-05T18:29:02;6.60;99.90
12811;DHT22;6470;47.654;7.896;2023-04-05T18:31:29;6.10;99.90
12811;DHT22;6470;47.654;7.896;2023-04-05T18:33:55;6.20;99.90
12811;DHT22;6470;47.654;7.896;2023-04-05T18:36:22;6.40;99.90
12811;DHT22;6470;47.654;7.896;2023-04-05T18:38:53;7.00;99.90
12811;DHT22;6470;47.654;7.896;2023-04-05T18:41:20;6.20;99.90
12811;DHT22;6470;47.654;7.896;2023-04-05T18:43:45;3.50;99.90
12811;DHT22;6470;47.654;7.896;2023-04-05T18:46:12;3.30;99.90
12811;DHT22;6470;47.654;7.896;2023-04-05T18:48:43;6.40;99.90
12811;DHT22;6470;47.654;7.896;2023-04-05T18:53:34;5.70;99.90
12811;DHT22;6470;47.654;7.896;2023-04-05T18:56:01;5.10;99.90
12811;DHT22;6470;47.654;7.896;2023-04-05T18:58:26;5.30;99.90
12811;DHT22;6470;47.654;7.896;2023-04-05T19:00:52;5.40;99.90
12811;DHT22;6470;47.654;7.896;2023-04-05T19:03:18;6.10;99.90
12811;DHT22;6470;47.654;7.896;2023-04-05T19:05:52;6.10;99.90
12811;DHT22;6470;47.654;7.896;2023-04-05T19:08:18;5.50;99.90
12811;DHT22;6470;47.654;7.896;2023-04-05T19:10:44;3.10;99.90
12811;DHT22;6470;47.654;7.896;2023-04-05T19:13:10;5.60;99.90
12811;DHT22;6470;47.654;7.896;2023-04-05T19:18:02;5.30;99.90
12811;DHT22;6470;47.654;7.896;2023-04-05T19:20:28;5.00;99.90
12811;DHT22;6470;47.654;7.896;2023-04-05T19:22:54;2.40;99.90
12811;DHT22;6470;47.654;7.896;2023-04-05T19:25:20;4.20;99.90
12811;DHT22;6470;47.654;7.896;2023-04-05T19:27:45;5.10;99.90
12811;DHT22;6470;47.654;7.896;2023-04-05T19:30:11;4.90;99.90
12811;DHT22;6470;47.654;7.896;2023-04-05T19:32:37;4.90;99.90
12811;DHT22;6470;47.654;7.896;2023-04-05T19:35:03;4.30;99.90
12811;DHT22;6470;47.654;7.896;2023-04-05T19:37:29;4.80;99.90
12811;DHT22;6470;47.654;7.896;2023-04-05T19:39:55;3.90;99.90
12811;DHT22;6470;47.654;7.896;2023-04-05T19:44:48;4.40;99.90
12811;DHT22;6470;47.654;7.896;2023-04-05T19:47:18;3.80;99.90
12811;DHT22;6470;47.654;7.896;2023-04-05T19:49:44;3.10;99.90
12811;DHT22;6470;47.654;7.896;2023-04-05T19:52:41;3.00;99.90
12811;DHT22;6470;47.654;7.896;2023-04-05T19:57:57;3.00;99.90
12811;DHT22;6470;47.654;7.896;2023-04-05T20:00:45;1.40;99.90
12811;DHT22;6470;47.654;7.896;2023-04-05T20:08:29;3.80;99.90
12811;DHT22;6470;47.654;7.896;2023-04-05T20:10:54;4.70;99.90
12811;DHT22;6470;47.654;7.896;2023-04-05T20:13:20;4.20;99.90
12811;DHT22;6470;47.654;7.896;2023-04-05T20:15:47;4.10;99.90
12811;DHT22;6470;47.654;7.896;2023-04-05T20:18:25;3.70;99.90
12811;DHT22;6470;47.654;7.896;2023-04-05T20:20:52;1.60;99.90
12811;DHT22;6470;47.654;7.896;2023-04-05T20:23:20;4.20;99.90
12811;DHT22;6470;47.654;7.896;2023-04-05T20:25:48;1.40;99.90
12811;DHT22;6470;47.654;7.896;2023-04-05T20:28:49;3.80;99.90
12811;DHT22;6470;47.654;7.896;2023-04-05T20:31:18;3.50;99.90
12811;DHT22;6470;47.654;7.896;2023-04-05T20:36:30;3.50;99.90
12811;DHT22;6470;47.654;7.896;2023-04-05T20:38:57;3.20;99.90
12811;DHT22;6470;47.654;7.896;2023-04-05T20:41:23;0.80;99.90
12811;DHT22;6470;47.654;7.896;2023-04-05T20:43:49;2.90;99.90
12811;DHT22;6470;47.654;7.896;2023-04-05T20:46:15;3.20;99.90
12811;DHT22;6470;47.654;7.896;2023-04-05T20:48:41;4.10;99.90
12811;DHT22;6470;47.654;7.896;2023-04-05T20:51:08;3.80;99.90
12811;DHT22;6470;47.654;7.896;2023-04-05T20:53:35;3.50;99.90
12811;DHT22;6470;47.654;7.896;2023-04-05T20:56:05;3.40;99.90
12811;DHT22;6470;47.654;7.896;2023-04-05T20:58:32;3.20;99.90
12811;DHT22;6470;47.654;7.896;2023-04-05T21:00:58;3.30;99.90
12811;DHT22;6470;47.654;7.896;2023-04-05T21:03:28;3.40;99.90
12811;DHT22;6470;47.654;7.896;2023-04-05T21:05:55;3.90;99.90
12811;DHT22;6470;47.654;7.896;2023-04-05T21:08:22;1.00;99.90
12811;DHT22;6470;47.654;7.896;2023-04-05T21:10:47;3.30;99.90
12811;DHT22;6470;47.654;7.896;2023-04-05T21:13:13;3.10;99.90
12811;DHT22;6470;47.654;7.896;2023-04-05T21:15:39;3.20;99.90
12811;DHT22;6470;47.654;7.896;2023-04-05T21:18:05;3.10;99.90
12811;DHT22;6470;47.654;7.896;2023-04-05T21:20:33;2.40;99.90
12811;DHT22;6470;47.654;7.896;2023-04-05T21:23:01;2.80;99.90
12811;DHT22;6470;47.654;7.896;2023-04-05T21:25:30;2.90;99.90
12811;DHT22;6470;47.654;7.896;2023-04-05T21:27:57;2.10;99.90
12811;DHT22;6470;47.654;7.896;2023-04-05T21:30:23;2.60;99.90
12811;DHT22;6470;47.654;7.896;2023-04-05T21:32:49;2.40;99.90
12811;DHT22;6470;47.654;7.896;2023-04-05T21:35:15;2.40;99.90
12811;DHT22;6470;47.654;7.896;2023-04-05T21:37:41;2.60;99.90
12811;DHT22;6470;47.654;7.896;2023-04-05T21:40:07;2.50;99.90
12811;DHT22;6470;47.654;7.896;2023-04-05T21:42:33;2.20;99.90
12811;DHT22;6470;47.654;7.896;2023-04-05T21:44:59;2.30;99.90
12811;DHT22;6470;47.654;7.896;2023-04-05T21:47:25;2.60;99.90
12811;DHT22;6470;47.654;7.896;2023-04-05T21:49:51;2.40;99.90
12811;DHT22;6470;47.654;7.896;2023-04-05T21:52:21;2.40;99.90
12811;DHT22;6470;47.654;7.896;2023-04-05T21:54:47;2.20;99.90
12811;DHT22;6470;47.654;7.896;2023-04-05T21:57:13;2.50;99.90
12811;DHT22;6470;47.654;7.896;2023-04-05T21:59:39;2.50;99.90
12811;DHT22;6470;47.654;7.896;2023-04-05T22:02:04;0.60;99.90
12811;DHT22;6470;47.654;7.896;2023-04-05T22:04:31;2.90;99.90
12811;DHT22;6470;47.654;7.896;2023-04-05T22:06:57;0.20;99.90
12811;DHT22;6470;47.654;7.896;2023-04-05T22:09:23;3.20;99.90
12811;DHT22;6470;47.654;7.896;2023-04-05T22:11:49;-0.40;99.90
12811;DHT22;6470;47.654;7.896;2023-04-05T22:14:16;2.30;99.90
12811;DHT22;6470;47.654;7.896;2023-04-05T22:16:42;-0.60;99.90
12811;DHT22;6470;47.654;7.896;2023-04-05T22:19:09;2.50;99.90
12811;DHT22;6470;47.654;7.896;2023-04-05T22:21:39;2.80;99.90
12811;DHT22;6470;47.654;7.896;2023-04-05T22:24:06;1.90;99.90
12811;DHT22;6470;47.654;7.896;2023-04-05T22:26:32;2.30;99.90
12811;DHT22;6470;47.654;7.896;2023-04-05T22:31:24;2.90;99.90
12811;DHT22;6470;47.654;7.896;2023-04-05T22:33:49;2.80;99.90
12811;DHT22;6470;47.654;7.896;2023-04-05T22:36:15;2.40;99.90
12811;DHT22;6470;47.654;7.896;2023-04-05T22:38:41;2.90;99.90
12811;DHT22;6470;47.654;7.896;2023-04-05T22:41:07;1.20;99.90
12811;DHT22;6470;47.654;7.896;2023-04-05T22:43:33;2.70;99.90
12811;DHT22;6470;47.654;7.896;2023-04-05T22:45:59;2.80;99.90
12811;DHT22;6470;47.654;7.896;2023-04-05T22:50:52;2.50;99.90
12811;DHT22;6470;47.654;7.896;2023-04-05T22:53:17;2.60;99.90
12811;DHT22;6470;47.654;7.896;2023-04-05T22:55:43;2.10;99.90
12811;DHT22;6470;47.654;7.896;2023-04-05T22:58:10;2.20;99.90
12811;DHT22;6470;47.654;7.896;2023-04-05T23:00:36;2.70;99.90
12811;DHT22;6470;47.654;7.896;2023-04-05T23:03:02;2.40;99.90
12811;DHT22;6470;47.654;7.896;2023-04-05T23:05:28;2.80;99.90
12811;DHT22;6470;47.654;7.896;2023-04-05T23:10:20;2.70;99.90
12811;DHT22;6470;47.654;7.896;2023-04-05T23:12:46;-1.50;99.90
12811;DHT22;6470;47.654;7.896;2023-04-05T23:15:13;2.70;99.90
12811;DHT22;6470;47.654;7.896;2023-04-05T23:17:39;-1.60;99.90
12811;DHT22;6470;47.654;7.896;2023-04-05T23:20:06;2.10;99.90
12811;DHT22;6470;47.654;7.896;2023-04-05T23:22:33;1.20;99.90
12811;DHT22;6470;47.654;7.896;2023-04-05T23:25:04;2.20;99.90
12811;DHT22;6470;47.654;7.896;2023-04-05T23:27:31;2.60;99.90
12811;DHT22;6470;47.654;7.896;2023-04-05T23:29:57;2.60;99.90
12811;DHT22;6470;47.654;7.896;2023-04-05T23:32:22;2.80;99.90
12811;DHT22;6470;47.654;7.896;2023-04-05T23:34:48;2.40;99.90
12811;DHT22;6470;47.654;7.896;2023-04-05T23:37:14;2.10;99.90
12811;DHT22;6470;47.654;7.896;2023-04-05T23:39:41;-1.50;99.90
12811;DHT22;6470;47.654;7.896;2023-04-05T23:42:07;2.40;99.90
12811;DHT22;6470;47.654;7.896;2023-04-05T23:44:34;2.30;99.90
12811;DHT22;6470;47.654;7.896;2023-04-05T23:47:00;2.20;99.90
12811;DHT22;6470;47.654;7.896;2023-04-05T23:51:53;-1.60;99.90
12811;DHT22;6470;47.654;7.896;2023-04-05T23:54:20;2.00;99.90
12811;DHT22;6470;47.654;7.896;2023-04-05T23:56:45;2.60;99.90
12811;DHT22;6470;47.654;7.896;2023-04-05T23:59:11;1.70;99.90
